Time;durP1;ratioP1;P1;durP2;ratioP2;P2;SDS_P1;SDS_P2;PMS_P1;PMS_P2;Temp;Humidity;BMP_temperature;BMP_pressure;BME280_temperature;BME280_humidity;BME280_pressure;Samples;Min_cycle;Max_cycle;Signal;HPM_P1;HPM_P2
2022/05/21 08:41:32;;;;;;;;;;;;;;;24.62;nan;100161.03;4889908;23;20021;-90
2022/05/21 08:44:01;;;;;;;;;;;;;;;24.74;nan;100162.34;5047417;28;20007;-88
2022/05/21 08:46:43;;;;;;;;;;;;;;;24.87;nan;100162.59;5050553;28;19979;-87
2022/05/21 08:49:18;;;;;;;;;;;;;;;25.10;nan;100159.09;5042399;28;19990;-89
2022/05/21 08:51:57;;;;;;;;;;;;;;;;;;;;;
2022/05/21 08:54:24;;;;;;;;;;;;;;;25.03;nan;100144.69;5041677;28;20014;-86
2022/05/21 08:56:51;;;;;;;;;;;;;;;25.00;nan;100145.88;5041295;28;20040;-86
2022/05/21 08:59:19;;;;;;;;;;;;;;;25.13;nan;100145.28;5061535;28;20014;-87
2022/05/21 09:01:44;;;;;;;;;;;;;;;25.30;nan;100144.19;5069523;28;19968;-87
2022/05/21 09:04:12;;;;;;;;;;;;;;;25.46;nan;100137.00;5044609;28;19968;-87
2022/05/21 09:06:59;;;;;;;;;;;;;;;25.47;nan;100131.44;5034354;28;19980;-88
2022/05/21 09:09:27;;;;;;;;;;;;;;;25.60;nan;100128.16;5029637;28;20062;-87
2022/05/21 09:12:13;;;;;;;;;;;;;;;25.68;nan;100117.31;5017942;28;20067;-86
2022/05/21 09:14:45;;;;;;;;;;;;;;;25.70;nan;100117.09;5018489;28;19979;-87
2022/05/21 09:17:13;;;;;;;;;;;;;;;25.55;nan;100115.25;5025882;28;19976;-88
2022/05/21 09:19:48;;;;;;;;;;;;;;;25.45;nan;100105.75;5025927;28;19988;-86
2022/05/21 09:22:15;;;;;;;;;;;;;;;25.42;nan;100109.63;5038278;28;19972;-87
2022/05/21 09:24:57;;;;;;;;;;;;;;;25.32;nan;100107.19;5022175;28;19986;-88
2022/05/21 09:27:26;;;;;;;;;;;;;;;25.35;nan;100109.50;5017644;28;20696;-86
2022/05/21 09:29:53;;;;;;;;;;;;;;;25.38;nan;100109.19;5017081;28;20384;-87
2022/05/21 09:32:20;;;;;;;;;;;;;;;25.31;nan;100096.63;5022709;28;20042;-88
2022/05/21 09:34:57;;;;;;;;;;;;;;;25.35;nan;100101.44;5022251;28;19983;-87
2022/05/21 09:37:27;;;;;;;;;;;;;;;25.25;nan;100097.34;5018536;28;20054;-87
2022/05/21 09:39:52;;;;;;;;;;;;;;;25.22;nan;100101.25;5030765;28;20123;-88
2022/05/21 09:45:27;;;;;;;;;;;;;;;25.36;nan;100097.75;5017849;28;19974;-87
2022/05/21 09:48:01;;;;;;;;;;;;;;;25.34;nan;100093.56;5023367;28;20066;-87
2022/05/21 09:50:27;;;;;;;;;;;;;;;25.62;nan;100091.13;5018360;28;19983;-90
2022/05/21 09:52:53;;;;;;;;;;;;;;;25.93;nan;100084.78;5026399;28;19975;-89
2022/05/21 09:55:22;;;;;;;;;;;;;;;26.19;nan;100090.53;5019133;28;19974;-89
2022/05/21 09:57:48;;;;;;;;;;;;;;;26.19;nan;100085.13;5028264;28;20024;-87
2022/05/21 10:00:21;;;;;;;;;;;;;;;26.07;nan;100081.25;5027993;28;20373;-88
2022/05/21 10:02:49;;;;;;;;;;;;;;;25.85;nan;100084.88;5018079;28;19999;-88
2022/05/21 10:05:29;;;;;;;;;;;;;;;25.77;nan;100077.69;5020041;28;19978;-88
2022/05/21 10:11:04;;;;;;;;;;;;;;;25.66;nan;100070.91;5023268;28;20337;-89
2022/05/21 10:13:43;;;;;;;;;;;;;;;25.70;nan;100071.38;5030791;28;19972;-88
2022/05/21 10:16:08;;;;;;;;;;;;;;;25.77;nan;100073.13;5025440;28;19964;-89
2022/05/21 10:18:44;;;;;;;;;;;;;;;25.72;nan;100070.16;5033796;28;20089;-89
2022/05/21 10:21:16;;;;;;;;;;;;;;;25.86;nan;100059.63;5032167;28;19976;-90
2022/05/21 10:27:12;;;;;;;;;;;;;;;26.20;nan;100057.19;5024506;28;19973;-91
2022/05/21 10:30:22;;;;;;;;;;;;;;;26.09;nan;100059.53;5055425;28;20006;-92
2022/05/21 10:33:16;;;;;;;;;;;;;;;26.13;nan;100064.34;5038230;28;20014;-94
2022/05/21 10:36:22;;;;;;;;;;;;;;;26.28;nan;100053.56;5041806;28;20011;-92
2022/05/21 10:38:53;;;;;;;;;;;;;;;26.45;nan;100060.38;5039588;28;19983;-91
2022/05/21 10:41:47;;;;;;;;;;;;;;;26.39;nan;100046.84;5049856;28;19984;-91
2022/05/21 10:44:18;;;;;;;;;;;;;;;26.39;nan;100047.66;5044242;28;20015;-93
2022/05/21 10:47:01;;;;;;;;;;;;;;;26.38;nan;100039.75;5044696;28;20052;-90
2022/05/21 10:49:33;;;;;;;;;;;;;;;26.42;nan;100043.75;5032363;28;19982;-92
2022/05/21 10:52:09;;;;;;;;;;;;;;;26.41;nan;100047.47;5048474;28;20144;-93
2022/05/21 10:54:37;;;;;;;;;;;;;;;26.36;nan;100036.44;5043887;28;20057;-93
2022/05/21 10:57:03;;;;;;;;;;;;;;;26.33;nan;100044.88;5037159;28;20120;-90
2022/05/21 10:59:44;;;;;;;;;;;;;;;26.30;nan;100043.41;5045769;28;19999;-92
2022/05/21 11:02:22;;;;;;;;;;;;;;;26.25;nan;100044.00;5042630;28;20018;-92
2022/05/21 11:05:02;;;;;;;;;;;;;;;26.16;nan;100050.50;5039035;28;20075;-90
2022/05/21 11:07:34;;;;;;;;;;;;;;;26.23;nan;100053.28;5045410;28;19979;-93
2022/05/21 11:10:05;;;;;;;;;;;;;;;26.37;nan;100049.72;5039932;28;20010;-93
2022/05/21 11:13:00;;;;;;;;;;;;;;;;;;;;;
2022/05/21 11:15:58;;;;;;;;;;;;;;;26.33;nan;100044.88;5040543;28;20031;-91
2022/05/21 11:18:39;;;;;;;;;;;;;;;26.30;nan;100042.56;5031975;28;19983;-91
2022/05/21 11:21:16;;;;;;;;;;;;;;;26.23;nan;100043.34;5024537;28;19994;-93
2022/05/21 11:23:42;;;;;;;;;;;;;;;26.16;nan;100042.41;5012276;28;20109;-91
2022/05/21 11:26:19;;;;;;;;;;;;;;;25.99;nan;100039.09;5019469;28;20066;-92
2022/05/21 11:29:04;;;;;;;;;;;;;;;26.05;nan;100034.81;5020451;28;19976;-91
2022/05/21 11:38:12;;;;;;;;;;;;;;;;;;;;;
2022/05/21 19:37:16;;;;;;;;;;;;;;;21.35;nan;99646.19;4996226;28;20006;-73
2022/05/21 22:25:14;;;;;;;;;;;;;;;16.84;nan;99716.91;5034376;28;20410;-73
2022/05/21 22:42:45;;;;;;;;;;;;;;;16.14;nan;99679.63;5033821;28;20054;-73
2022/05/21 23:40:42;;;;;;;;;;;;;;;15.34;nan;99663.41;4994272;28;20035;-74
